Airfield :







YOU CAN JOIN US ON...

 
LOGIN :

Register | Disclaimer

   EN    FR    IT 

 









Legend :    VFR   Marginal VFR   IFR   Intensive IFR   Very Intensive IFR
Visi :
Ceiling :
>= 8 km
>= 3000ft
5 to 8 km
1000 to 3000 ft
1500m to 5 km
500 to 1000 ft
800 to 1500m
200 to 500 ft
< 800m
< 200 ft
Symbols :   Thunderstorms  Fog  Heavy snow  Heavy precipitations  Wind > 20 kt







- Airport Elevation : 48 ft
- IATA code : REK


BIRK - Reykjavik

CURRENT METAR :
  • 231000Z 07007KT 9999 VCSH FEW026 SCT041 OVC055 06/00 Q0995

EXPIRED METARs :
  • 230900Z 11006KT 070V140 9999 -RADZ FEW030 OVC050 05/M00 Q0996
  • 230800Z VRB01KT CAVOK 05/M00 Q0997

TAF TAF BIRK
Valid from the 23 at 09:00 until the 24 at 09:00 UTC


230759Z 2309/2409 09010KT 9999 RA SCT018 BKN027 OVC038 TX09/2318Z TN04/2309Z
BECMG 2314/2317 10020KT
BECMG 2317/2320 12026G40KT
BECMG 2322/2401 17020G30KT SHRA FEW023 BKN032
BECMG 2407/2409 17012KT
No reported NOTAMs for that airfield.



MET'MAP, your aeronautical weather chart ! - Copyright ORBIFLY December 2007 - Disclaimer

ORBIFLY MET'MAP TEAM :

Programming & Development : Alexandra Zaïnal
Concept & Development : Baudouin d'Aumeries
Co-Development & Prog : Marc-Olivier Méhu
Technical & hardware support : Manuel Goepfert

Contact : metmap@orbifly.com




SOURCES & CREDITS :

   NOAA